Time;durP1;ratioP1;P1;durP2;ratioP2;P2;SDS_P1;SDS_P2;PMS_P1;PMS_P2;Temp;Humidity;BMP_temperature;BMP_pressure;BME280_temperature;BME280_humidity;BME280_pressure;Samples;Min_cycle;Max_cycle;Signal;HPM_P1;HPM_P2
2022/11/16 00:01:08;;;;;;;17.33;9.90;;;10.10;99.90;;;;;;6187378;23;20009;-77
2022/11/16 00:03:34;;;;;;;16.25;9.50;;;10.10;99.90;;;;;;6186954;23;20333;-76
2022/11/16 00:06:02;;;;;;;15.10;9.40;;;10.10;99.90;;;;;;6187350;23;20017;-77
2022/11/16 00:08:32;;;;;;;15.52;10.55;;;10.10;99.90;;;;;;6187289;23;20040;-77
2022/11/16 00:11:16;;;;;;;14.70;9.07;;;10.20;99.90;;;;;;6187680;23;20016;-77
2022/11/16 00:13:43;;;;;;;16.00;9.35;;;10.20;99.90;;;;;;6160375;23;20089;-77
2022/11/16 00:16:19;;;;;;;17.63;10.32;;;10.20;99.90;;;;;;6186968;23;20028;-77
2022/11/16 00:18:44;;;;;;;16.20;10.60;;;10.20;99.90;;;;;;6187134;23;20041;-77
2022/11/16 00:21:10;;;;;;;17.77;10.80;;;10.30;99.90;;;;;;6187231;23;20025;-77
2022/11/16 00:23:40;;;;;;;17.25;10.95;;;10.20;99.90;;;;;;6160445;23;20021;-77
2022/11/16 00:26:07;;;;;;;15.38;9.65;;;10.20;99.90;;;;;;6160465;23;20088;-77
2022/11/16 00:28:34;;;;;;;16.63;10.63;;;10.30;99.90;;;;;;6187068;23;20021;-76
2022/11/16 00:31:01;;;;;;;17.90;10.48;;;10.30;99.90;;;;;;6160389;23;20322;-77
2022/11/16 00:33:27;;;;;;;15.43;10.20;;;10.30;99.90;;;;;;6160331;23;20457;-77
2022/11/16 00:35:53;;;;;;;18.02;11.38;;;10.30;99.90;;;;;;6186201;23;20528;-76
2022/11/16 00:38:18;;;;;;;16.45;10.68;;;10.30;99.90;;;;;;6186882;23;20014;-77
2022/11/16 00:40:44;;;;;;;18.63;10.40;;;10.40;99.90;;;;;;6186683;23;20318;-78
2022/11/16 00:43:10;;;;;;;17.70;11.35;;;10.30;99.90;;;;;;6186928;23;20064;-77
2022/11/16 00:45:37;;;;;;;17.20;11.52;;;10.30;99.90;;;;;;6160964;23;20071;-77
2022/11/16 00:48:03;;;;;;;20.08;12.90;;;10.40;99.90;;;;;;6186879;23;20013;-77
2022/11/16 00:50:28;;;;;;;18.90;11.98;;;10.30;99.90;;;;;;6186843;23;20366;-77
2022/11/16 00:52:54;;;;;;;20.70;12.15;;;10.30;99.90;;;;;;6160127;23;20507;-77
2022/11/16 00:55:19;;;;;;;20.70;12.25;;;10.30;99.90;;;;;;6160224;23;20059;-77
2022/11/16 00:57:45;;;;;;;20.13;12.70;;;10.30;99.90;;;;;;6186757;23;20016;-76
2022/11/16 01:00:11;;;;;;;20.65;12.25;;;10.30;99.90;;;;;;6160214;23;20028;-77
2022/11/16 01:02:37;;;;;;;19.63;12.98;;;10.40;99.90;;;;;;6186381;23;20028;-77
2022/11/16 01:05:03;;;;;;;22.42;14.13;;;10.40;99.90;;;;;;6160101;23;20021;-78
2022/11/16 01:07:29;;;;;;;20.73;13.15;;;10.30;99.90;;;;;;6186419;23;20088;-77
2022/11/16 01:09:54;;;;;;;23.58;14.05;;;10.40;99.90;;;;;;6160023;23;20079;-78
2022/11/16 01:12:20;;;;;;;22.30;13.15;;;10.40;99.90;;;;;;6160073;23;20068;-77
2022/11/16 01:14:46;;;;;;;23.70;13.63;;;10.40;99.90;;;;;;6159833;23;20083;-77
2022/11/16 01:17:13;;;;;;;23.80;15.10;;;10.40;99.90;;;;;;6186556;23;20028;-77
2022/11/16 01:19:40;;;;;;;26.08;14.45;;;10.40;99.90;;;;;;6159927;23;20071;-78
2022/11/16 01:22:05;;;;;;;30.13;15.30;;;10.40;99.90;;;;;;6159974;23;20331;-77
2022/11/16 01:24:31;;;;;;;24.45;14.60;;;10.40;99.90;;;;;;6159926;23;20479;-77
2022/11/16 01:26:57;;;;;;;24.02;14.05;;;10.40;99.90;;;;;;6186560;23;20017;-78
2022/11/16 01:29:28;;;;;;;26.10;15.25;;;10.40;99.90;;;;;;6186432;23;20437;-78
2022/11/16 01:31:55;;;;;;;27.58;16.38;;;10.40;99.90;;;;;;6186516;23;20013;-77
2022/11/16 01:34:21;;;;;;;27.92;15.57;;;10.40;99.90;;;;;;6186187;23;20418;-77
2022/11/16 01:36:46;;;;;;;27.95;15.77;;;10.40;99.90;;;;;;6186430;23;20013;-78
2022/11/16 01:39:13;;;;;;;25.25;16.08;;;10.40;99.90;;;;;;6186327;23;20013;-77
2022/11/16 01:41:40;;;;;;;25.88;15.18;;;10.40;99.90;;;;;;6159780;23;20017;-77
2022/11/16 01:44:32;;;;;;;28.67;16.10;;;10.40;99.90;;;;;;6186399;23;20021;-77
2022/11/16 01:47:04;;;;;;;24.23;15.20;;;10.40;99.90;;;;;;6159508;23;20021;-77
2022/11/16 01:49:33;;;;;;;26.35;15.82;;;10.40;99.90;;;;;;6159755;23;20076;-77
2022/11/16 01:52:06;;;;;;;28.10;15.20;;;10.40;99.90;;;;;;6186340;23;20039;-77
2022/11/16 01:54:36;;;;;;;27.25;16.98;;;10.40;99.90;;;;;;6159705;23;20354;-78
2022/11/16 01:57:12;;;;;;;27.13;15.82;;;10.40;99.90;;;;;;6185901;23;20438;-78
2022/11/16 01:59:39;;;;;;;30.05;16.80;;;10.40;99.90;;;;;;6186094;23;20458;-77
2022/11/16 02:02:04;;;;;;;27.45;16.27;;;10.40;99.90;;;;;;6159674;23;20463;-78
2022/11/16 02:04:30;;;;;;;28.13;16.85;;;10.40;99.90;;;;;;6159685;23;20107;-77
2022/11/16 02:07:27;;;;;;;28.20;16.92;;;10.40;99.90;;;;;;6186304;23;20021;-78
2022/11/16 02:10:11;;;;;;;29.17;16.73;;;10.40;99.90;;;;;;6185929;23;20314;-77
2022/11/16 02:13:12;;;;;;;25.05;15.38;;;10.40;99.90;;;;;;6186326;23;20021;-77
2022/11/16 02:15:47;;;;;;;27.60;15.55;;;10.40;99.90;;;;;;6159406;23;20032;-78
2022/11/16 02:18:22;;;;;;;29.55;17.00;;;10.40;99.90;;;;;;6159558;23;20021;-77
2022/11/16 02:21:13;;;;;;;24.40;15.00;;;10.40;99.90;;;;;;6186218;23;20342;-78
2022/11/16 02:23:57;;;;;;;24.67;15.57;;;10.50;99.90;;;;;;6159555;23;20103;-77
2022/11/16 02:26:51;;;;;;;26.02;15.25;;;10.40;99.90;;;;;;6186247;23;20028;-78
2022/11/16 02:29:28;;;;;;;25.67;15.80;;;10.50;99.90;;;;;;6186157;23;20035;-78
2022/11/16 02:32:19;;;;;;;25.15;15.55;;;10.50;99.90;;;;;;6186239;23;20031;-78
2022/11/16 02:34:54;;;;;;;23.60;14.10;;;10.50;99.90;;;;;;6185817;23;20052;-78
2022/11/16 02:37:23;;;;;;;23.17;14.32;;;10.50;99.90;;;;;;6159431;23;20017;-77
2022/11/16 02:39:54;;;;;;;26.98;16.48;;;10.50;99.90;;;;;;6186113;23;20025;-77
2022/11/16 02:42:31;;;;;;;26.73;14.68;;;10.50;99.90;;;;;;6186160;23;20022;-78
2022/11/16 02:44:59;;;;;;;27.48;14.85;;;10.40;99.90;;;;;;6185889;23;20028;-78
2022/11/16 02:47:29;;;;;;;27.67;14.45;;;10.40;99.90;;;;;;6186118;23;20113;-77
2022/11/16 02:50:01;;;;;;;24.50;14.20;;;10.50;99.90;;;;;;6185697;23;20013;-77
2022/11/16 02:52:28;;;;;;;28.27;15.82;;;10.40;99.90;;;;;;6186100;23;20041;-78
2022/11/16 02:54:53;;;;;;;23.15;14.23;;;10.50;99.90;;;;;;6159459;23;20144;-78
2022/11/16 02:57:28;;;;;;;25.38;14.43;;;10.50;99.90;;;;;;6186094;23;20041;-79
2022/11/16 02:59:57;;;;;;;24.98;14.68;;;10.50;99.90;;;;;;6188017;23;20023;-78
2022/11/16 03:02:26;;;;;;;25.90;14.38;;;10.50;99.90;;;;;;6187631;23;20445;-78
2022/11/16 03:05:03;;;;;;;24.27;13.75;;;10.50;99.90;;;;;;6161172;23;20028;-78
2022/11/16 03:07:33;;;;;;;24.83;13.95;;;10.50;99.90;;;;;;6187599;23;20013;-78
2022/11/16 03:10:00;;;;;;;25.75;13.85;;;10.50;99.90;;;;;;6187533;23;20450;-78
2022/11/16 03:12:30;;;;;;;24.17;14.05;;;10.50;99.90;;;;;;6187807;23;20036;-77
2022/11/16 03:15:03;;;;;;;25.83;13.45;;;10.50;99.90;;;;;;6160996;23;20024;-77
2022/11/16 03:17:29;;;;;;;;;;;10.50;99.90;;;;;;6188114;23;20052;-77
2022/11/16 03:20:09;;;;;;;23.60;14.15;;;10.50;99.90;;;;;;6187762;23;19916;-78
2022/11/16 03:22:39;;;;;;;25.35;13.75;;;10.50;99.90;;;;;;6161449;23;20019;-78
2022/11/16 03:25:07;;;;;;;22.83;13.35;;;10.50;99.90;;;;;;6187560;23;20091;-78
2022/11/16 03:27:38;;;;;;;26.25;14.90;;;10.50;99.90;;;;;;6187369;23;20017;-77
2022/11/16 03:30:11;;;;;;;24.88;13.68;;;10.50;99.90;;;;;;6161021;23;20013;-78
2022/11/16 03:32:59;;;;;;;24.58;13.45;;;10.50;99.90;;;;;;6187355;23;20013;-78
2022/11/16 03:35:42;;;;;;;24.00;13.35;;;10.50;99.90;;;;;;6187684;23;20124;-78
2022/11/16 03:38:11;;;;;;;23.55;12.45;;;10.50;99.90;;;;;;6187159;23;20017;-78
2022/11/16 03:40:38;;;;;;;21.75;13.60;;;10.60;99.90;;;;;;6187581;23;20092;-78
2022/11/16 03:43:06;;;;;;;25.35;14.57;;;10.50;99.90;;;;;;6187444;23;20101;-78
2022/11/16 03:45:33;;;;;;;23.52;12.77;;;10.50;99.90;;;;;;6187126;23;20469;-78
2022/11/16 03:47:59;;;;;;;23.90;14.05;;;10.50;99.90;;;;;;6187509;23;20076;-78
2022/11/16 03:50:25;;;;;;;25.27;13.38;;;10.50;99.90;;;;;;6160781;23;20028;-78
2022/11/16 03:52:51;;;;;;;22.80;13.63;;;10.50;99.90;;;;;;6160861;23;20021;-79
2022/11/16 03:55:16;;;;;;;24.95;13.50;;;10.60;99.90;;;;;;6187433;23;20460;-79
2022/11/16 03:57:42;;;;;;;23.70;14.38;;;10.50;99.90;;;;;;6160621;23;20092;-78
2022/11/16 04:00:08;;;;;;;25.92;13.80;;;10.50;99.90;;;;;;6187026;23;20020;-80
2022/11/16 04:02:34;;;;;;;24.50;14.18;;;10.50;99.90;;;;;;6186940;23;20023;-80
2022/11/16 04:24:25;;;;;;;25.73;14.93;;;10.50;99.90;;;;;;6187224;23;20028;-78
2022/11/16 04:29:40;;;;;;;24.23;15.45;;;10.50;99.90;;;;;;6187162;23;20106;-78
2022/11/16 04:37:47;;;;;;;27.23;14.35;;;10.50;99.90;;;;;;6186929;23;20032;-78
2022/11/16 04:40:16;;;;;;;29.25;16.17;;;10.60;99.90;;;;;;6186770;23;20096;-78
2022/11/16 04:42:42;;;;;;;27.70;16.10;;;10.50;99.90;;;;;;6186583;23;20029;-78
2022/11/16 04:47:52;;;;;;;27.00;15.60;;;10.50;99.90;;;;;;6187005;23;20024;-79
2022/11/16 04:50:19;;;;;;;30.52;15.07;;;10.50;99.90;;;;;;6186608;23;20025;-78
2022/11/16 04:52:45;;;;;;;29.50;16.38;;;10.50;99.90;;;;;;6186542;23;20083;-78
2022/11/16 04:55:11;;;;;;;25.60;15.27;;;10.50;99.90;;;;;;6160263;23;20021;-78
2022/11/16 04:57:37;;;;;;;26.58;15.68;;;10.50;99.90;;;;;;6186704;23;20024;-79
2022/11/16 05:00:04;;;;;;;25.80;14.85;;;10.50;99.90;;;;;;6186843;23;20072;-78
2022/11/16 05:02:30;;;;;;;26.73;15.77;;;10.60;99.90;;;;;;6160247;23;20009;-78
2022/11/16 05:04:55;;;;;;;27.92;16.50;;;10.50;99.90;;;;;;6186711;23;20087;-78
2022/11/16 05:07:21;;;;;;;25.98;15.18;;;10.50;99.90;;;;;;6186807;23;20450;-78
2022/11/16 05:09:47;;;;;;;26.92;15.57;;;10.50;99.90;;;;;;6186655;23;20036;-78
2022/11/16 05:12:22;;;;;;;27.95;15.73;;;10.50;99.90;;;;;;6186631;23;20051;-79
2022/11/16 05:14:48;;;;;;;28.58;16.80;;;10.50;99.90;;;;;;6186491;23;20095;-81
2022/11/16 05:17:14;;;;;;;26.55;15.25;;;10.60;99.90;;;;;;6186560;23;20470;-79
2022/11/16 05:22:25;;;;;;;29.70;15.93;;;10.50;99.90;;;;;;6159816;23;20091;-78
2022/11/16 05:24:50;;;;;;;30.33;16.35;;;10.50;99.90;;;;;;6186653;23;20192;-79
2022/11/16 05:27:18;;;;;;;28.35;16.08;;;10.50;99.90;;;;;;6186499;23;20010;-79
2022/11/16 05:29:45;;;;;;;28.70;15.50;;;10.50;99.90;;;;;;6186561;23;20071;-79
2022/11/16 05:32:11;;;;;;;32.60;17.20;;;10.50;99.90;;;;;;6159821;23;20017;-78
2022/11/16 05:34:37;;;;;;;26.10;15.73;;;10.50;99.90;;;;;;6159691;23;20017;-79
2022/11/16 05:37:03;;;;;;;25.27;15.23;;;10.50;99.90;;;;;;6159816;23;20017;-79
2022/11/16 05:39:29;;;;;;;29.10;17.30;;;10.50;99.90;;;;;;6159733;23;20070;-79
2022/11/16 05:41:55;;;;;;;30.00;16.88;;;10.50;99.90;;;;;;6186462;23;20009;-78
2022/11/16 05:44:21;;;;;;;26.95;16.40;;;10.40;99.90;;;;;;6186426;23;20345;-78
2022/11/16 05:46:47;;;;;;;28.73;16.35;;;10.50;99.90;;;;;;6159760;23;20071;-79
2022/11/16 05:49:14;;;;;;;28.60;16.27;;;10.40;99.90;;;;;;6159771;23;20025;-78
2022/11/16 05:51:41;;;;;;;26.35;16.83;;;10.50;99.90;;;;;;6186434;23;20013;-78
2022/11/16 05:54:07;;;;;;;28.02;16.33;;;10.50;99.90;;;;;;6159748;23;20055;-78
2022/11/16 05:56:33;;;;;;;31.23;18.55;;;10.50;99.90;;;;;;6159596;23;20028;-78
2022/11/16 05:58:59;;;;;;;28.70;17.08;;;10.40;99.90;;;;;;6185882;23;20017;-78
2022/11/16 06:01:25;;;;;;;32.10;17.17;;;10.50;99.90;;;;;;6186361;23;20023;-78
2022/11/16 06:03:51;;;;;;;31.25;17.90;;;10.50;99.90;;;;;;6186044;23;20456;-78
2022/11/16 06:06:18;;;;;;;28.75;15.88;;;10.50;99.90;;;;;;6159643;23;20017;-78
2022/11/16 06:08:44;;;;;;;34.00;18.45;;;10.40;99.90;;;;;;6159600;23;20009;-79
2022/11/16 06:11:11;;;;;;;31.55;16.48;;;10.40;99.90;;;;;;6159581;23;20397;-80
2022/11/16 06:13:36;;;;;;;36.05;18.33;;;10.50;99.90;;;;;;6185753;23;20020;-81
2022/11/16 06:16:04;;;;;;;32.00;16.92;;;10.40;99.90;;;;;;6160410;23;20021;-82
2022/11/16 06:18:30;;;;;;;30.65;16.48;;;10.40;99.90;;;;;;6159394;23;20021;-82
2022/11/16 06:20:56;;;;;;;33.42;17.08;;;10.50;99.90;;;;;;6186224;23;20100;-83
2022/11/16 06:23:22;;;;;;;32.90;17.83;;;10.50;99.90;;;;;;6185901;23;20025;-83
2022/11/16 06:25:53;;;;;;;31.88;17.13;;;10.50;99.90;;;;;;6186244;23;20020;-82
2022/11/16 06:28:19;;;;;;;30.48;15.55;;;10.50;99.90;;;;;;6159658;23;20349;-82
2022/11/16 06:30:46;;;;;;;31.23;15.95;;;10.40;99.90;;;;;;6159540;23;20028;-82
2022/11/16 06:33:12;;;;;;;30.42;14.95;;;10.40;99.90;;;;;;6186929;23;20025;-82
2022/11/16 06:35:38;;;;;;;26.48;15.40;;;10.40;99.90;;;;;;6161463;23;20013;-82
2022/11/16 06:38:03;;;;;;;28.55;14.90;;;10.40;99.90;;;;;;6187750;23;20059;-82
2022/11/16 06:40:29;;;;;;;28.30;15.30;;;10.40;99.90;;;;;;6161518;23;20103;-82
2022/11/16 06:42:56;;;;;;;29.08;15.45;;;10.40;99.90;;;;;;6161472;23;20430;-82
2022/11/16 06:45:22;;;;;;;30.08;16.15;;;10.50;99.90;;;;;;6161430;23;20075;-82
2022/11/16 06:47:47;;;;;;;24.45;14.23;;;10.40;99.90;;;;;;6188050;23;20080;-81
2022/11/16 06:50:13;;;;;;;27.08;15.18;;;10.40;99.90;;;;;;6161397;23;20445;-81
2022/11/16 06:52:39;;;;;;;29.25;14.30;;;10.50;99.90;;;;;;6187802;23;20104;-81
2022/11/16 06:55:05;;;;;;;25.15;14.38;;;10.50;99.90;;;;;;6161339;23;20017;-81
2022/11/16 06:57:34;;;;;;;28.90;15.55;;;10.50;99.90;;;;;;6161205;23;20489;-81
2022/11/16 06:59:59;;;;;;;27.45;14.80;;;10.50;99.90;;;;;;6161191;23;20398;-81
2022/11/16 07:02:25;;;;;;;30.85;14.30;;;10.50;99.90;;;;;;6187947;23;20500;-81
2022/11/16 07:04:51;;;;;;;26.60;14.13;;;10.50;99.90;;;;;;6161363;23;20062;-81
2022/11/16 07:07:16;;;;;;;29.23;14.00;;;10.50;99.90;;;;;;6161743;23;20333;-81
2022/11/16 07:09:43;;;;;;;27.42;14.00;;;10.50;99.90;;;;;;6187872;23;20025;-81
2022/11/16 07:12:09;;;;;;;24.55;13.38;;;10.50;99.90;;;;;;6161210;23;20063;-81
2022/11/16 07:14:35;;;;;;;29.65;15.80;;;10.40;99.90;;;;;;6187275;23;20021;-81
2022/11/16 07:17:00;;;;;;;28.80;15.85;;;10.50;99.90;;;;;;6160907;23;20052;-81
2022/11/16 07:19:26;;;;;;;46.10;24.38;;;10.50;99.90;;;;;;6160805;23;20021;-81
2022/11/16 07:21:52;;;;;;;30.20;14.90;;;10.50;99.90;;;;;;6187425;23;20020;-81
2022/11/16 07:24:17;;;;;;;27.25;13.23;;;10.40;99.90;;;;;;6160556;23;20044;-81
2022/11/16 07:26:43;;;;;;;24.30;12.77;;;10.50;99.90;;;;;;6186837;23;20456;-81
2022/11/16 07:29:08;;;;;;;29.27;15.15;;;10.40;99.90;;;;;;6159456;23;20021;-81
2022/11/16 07:31:34;;;;;;;24.23;13.13;;;10.40;99.90;;;;;;6160190;23;20464;-81
2022/11/16 07:34:00;;;;;;;31.55;15.38;;;10.40;99.90;;;;;;6187195;23;20484;-85
2022/11/16 07:36:25;;;;;;;28.23;14.00;;;10.40;99.90;;;;;;6159696;23;20055;-81
2022/11/16 07:38:51;;;;;;;27.48;15.00;;;10.40;99.90;;;;;;6187195;23;20025;-81
2022/11/16 07:41:18;;;;;;;30.42;14.85;;;10.40;99.90;;;;;;6187012;23;20025;-84
2022/11/16 07:43:44;;;;;;;32.47;16.88;;;10.40;99.90;;;;;;6186907;23;20006;-81
2022/11/16 07:46:10;;;;;;;31.67;17.83;;;10.40;99.90;;;;;;6187296;23;20039;-83
2022/11/16 07:48:36;;;;;;;26.42;14.85;;;10.40;99.90;;;;;;6187238;23;20068;-81
2022/11/16 07:51:07;;;;;;;32.83;15.52;;;10.40;99.90;;;;;;6186820;23;20017;-80
2022/11/16 07:53:33;;;;;;;28.98;14.70;;;10.40;99.90;;;;;;6187191;23;20067;-80
2022/11/16 07:55:59;;;;;;;27.60;15.00;;;10.40;99.90;;;;;;6187174;23;20013;-81
2022/11/16 07:58:27;;;;;;;27.50;14.73;;;10.30;99.90;;;;;;6186845;23;20013;-80
2022/11/16 08:00:53;;;;;;;31.55;13.60;;;10.40;99.90;;;;;;6187045;23;20028;-79
2022/11/16 08:03:19;;;;;;;29.58;15.23;;;10.30;99.90;;;;;;6160639;23;20017;-80
2022/11/16 08:05:45;;;;;;;32.70;14.32;;;10.30;99.90;;;;;;6160412;23;20029;-80
2022/11/16 08:08:11;;;;;;;29.80;14.95;;;10.40;99.90;;;;;;6186955;23;20088;-80
2022/11/16 08:10:37;;;;;;;26.27;16.00;;;10.30;99.90;;;;;;6186632;23;20457;-80
2022/11/16 08:13:04;;;;;;;28.45;14.88;;;10.30;99.90;;;;;;6160110;23;20095;-79
2022/11/16 08:15:29;;;;;;;27.08;14.40;;;10.40;99.90;;;;;;6186519;23;20017;-80
2022/11/16 08:17:58;;;;;;;29.42;15.13;;;10.40;99.90;;;;;;6186766;23;20024;-80
2022/11/16 08:20:24;;;;;;;26.60;14.93;;;10.40;99.90;;;;;;6186913;23;20068;-79
2022/11/16 08:22:49;;;;;;;28.17;14.95;;;10.30;99.90;;;;;;6186564;23;20021;-80
2022/11/16 08:25:15;;;;;;;26.58;15.60;;;10.30;99.90;;;;;;6186905;23;20017;-80
2022/11/16 08:27:41;;;;;;;34.03;17.42;;;10.30;99.90;;;;;;6186365;23;20438;-80
2022/11/16 08:30:08;;;;;;;30.63;16.83;;;10.30;99.90;;;;;;6186824;23;20533;-80
2022/11/16 08:32:37;;;;;;;29.40;15.65;;;10.40;99.90;;;;;;6186802;23;20013;-80
2022/11/16 08:35:03;;;;;;;31.05;17.15;;;10.30;99.90;;;;;;6186364;23;20048;-80
2022/11/16 08:37:30;;;;;;;33.33;19.05;;;10.30;99.90;;;;;;6186588;23;20022;-79
2022/11/16 08:39:56;;;;;;;36.75;18.52;;;10.40;99.90;;;;;;6186633;23;20017;-79
2022/11/16 08:42:22;;;;;;;34.10;18.05;;;10.40;99.90;;;;;;6186135;23;20436;-79
2022/11/16 08:44:48;;;;;;;33.53;17.83;;;10.40;99.90;;;;;;6186173;23;20013;-80
2022/11/16 08:47:13;;;;;;;34.03;18.83;;;10.40;99.90;;;;;;6186641;23;20021;-78
2022/11/16 08:49:39;;;;;;;32.97;18.17;;;10.40;99.90;;;;;;6159906;23;20024;-79
2022/11/16 08:52:05;;;;;;;32.75;17.98;;;10.30;99.90;;;;;;6186587;23;20009;-78
2022/11/16 08:54:31;;;;;;;29.88;15.95;;;10.40;99.90;;;;;;6186450;23;20457;-79
2022/11/16 08:56:56;;;;;;;30.70;17.05;;;10.30;99.90;;;;;;6158789;23;20017;-79
2022/11/16 08:59:22;;;;;;;22.95;14.65;;;10.30;99.90;;;;;;6186213;23;20071;-79
2022/11/16 09:01:50;;;;;;;29.42;17.65;;;10.30;99.90;;;;;;6186214;23;20020;-79
2022/11/16 09:04:17;;;;;;;27.13;16.58;;;10.30;99.90;;;;;;6186261;23;20520;-79
2022/11/16 09:06:43;;;;;;;39.63;24.52;;;10.30;99.90;;;;;;6186036;23;20350;-79
2022/11/16 09:09:09;;;;;;;114.70;59.22;;;10.30;99.90;;;;;;6185932;23;20020;-79
2022/11/16 09:11:35;;;;;;;80.97;44.03;;;10.30;99.90;;;;;;6186332;23;20032;-79
2022/11/16 09:14:01;;;;;;;69.22;41.63;;;10.30;99.90;;;;;;6174822;23;20060;-79
2022/11/16 09:16:27;;;;;;;40.28;24.85;;;10.30;99.90;;;;;;6186012;23;20025;-78
2022/11/16 09:18:54;;;;;;;33.65;19.95;;;10.30;99.90;;;;;;6185720;23;20067;-77
2022/11/16 09:21:25;;;;;;;27.50;18.75;;;10.30;99.90;;;;;;6174029;23;20071;-78
2022/11/16 09:23:53;;;;;;;34.10;18.38;;;10.30;99.90;;;;;;6183428;23;20438;-78
2022/11/16 09:26:21;;;;;;;34.63;18.48;;;10.30;99.90;;;;;;6183022;23;20346;-77
2022/11/16 09:28:59;;;;;;;40.00;20.58;;;10.40;99.90;;;;;;6186170;23;20095;-78
2022/11/16 09:31:30;;;;;;;43.38;20.92;;;10.40;99.90;;;;;;6159332;23;20021;-79
2022/11/16 09:33:57;;;;;;;37.00;19.35;;;10.40;99.90;;;;;;6159480;23;20464;-79
2022/11/16 09:36:24;;;;;;;30.38;16.90;;;10.40;99.90;;;;;;6185990;23;20024;-79
2022/11/16 09:38:49;;;;;;;29.45;17.45;;;10.40;99.90;;;;;;6159525;23;20020;-79
2022/11/16 09:41:15;;;;;;;34.97;18.42;;;10.50;99.90;;;;;;6185851;23;20064;-79
2022/11/16 09:43:57;;;;;;;34.42;19.52;;;10.50;99.90;;;;;;6159420;23;20047;-79
2022/11/16 09:46:32;;;;;;;27.95;16.27;;;10.50;99.90;;;;;;6185732;23;20433;-79
2022/11/16 09:49:01;;;;;;;27.27;15.93;;;10.50;99.90;;;;;;6185944;23;20013;-78
2022/11/16 09:51:32;;;;;;;30.85;17.67;;;10.50;99.90;;;;;;6185963;23;20100;-79
2022/11/16 09:54:01;;;;;;;25.75;14.50;;;10.50;99.90;;;;;;6186216;23;20021;-79
2022/11/16 09:56:30;;;;;;;24.55;13.95;;;10.60;99.90;;;;;;6159417;23;20028;-79
2022/11/16 09:59:08;;;;;;;24.23;14.38;;;10.50;99.90;;;;;;6185892;23;20013;-79
2022/11/16 10:01:54;;;;;;;27.08;14.35;;;10.50;99.90;;;;;;6185651;23;20083;-79
2022/11/16 10:04:35;;;;;;;28.20;14.05;;;10.60;99.90;;;;;;6185833;23;20393;-79
2022/11/16 10:07:16;;;;;;;30.33;12.75;;;10.60;99.90;;;;;;6185539;23;20017;-79
2022/11/16 10:09:43;;;;;;;28.77;14.70;;;10.60;99.90;;;;;;6159268;23;20021;-79
2022/11/16 10:12:24;;;;;;;28.30;14.23;;;10.60;99.90;;;;;;6185860;23;20013;-79
2022/11/16 10:15:14;;;;;;;30.88;14.32;;;10.60;99.90;;;;;;6185557;23;20048;-79
2022/11/16 10:17:55;;;;;;;31.35;15.15;;;10.70;99.90;;;;;;6185894;23;20009;-78
2022/11/16 10:20:53;;;;;;;28.30;14.32;;;10.80;99.90;;;;;;6185944;23;20025;-78
2022/11/16 10:23:24;;;;;;;33.08;14.77;;;10.80;99.90;;;;;;6185274;23;20516;-79
2022/11/16 10:26:02;;;;;;;31.38;15.00;;;10.80;99.90;;;;;;6185573;23;20059;-79
2022/11/16 10:28:39;;;;;;;32.25;14.55;;;10.80;99.90;;;;;;6185801;23;20437;-78
2022/11/16 10:31:20;;;;;;;31.17;17.33;;;10.90;99.90;;;;;;6185943;23;20097;-78
2022/11/16 10:33:52;;;;;;;33.53;16.45;;;10.90;99.90;;;;;;6185809;23;20021;-79
2022/11/16 10:36:20;;;;;;;36.53;17.67;;;10.90;99.90;;;;;;6159204;23;20017;-79
2022/11/16 10:38:46;;;;;;;35.78;18.30;;;11.00;99.90;;;;;;6185366;23;20024;-79
2022/11/16 10:41:33;;;;;;;35.63;17.90;;;11.10;99.90;;;;;;6185586;23;20028;-78
2022/11/16 10:43:59;;;;;;;52.45;24.10;;;11.10;99.90;;;;;;6185772;23;20032;-78
2022/11/16 10:46:45;;;;;;;45.25;19.25;;;11.10;99.90;;;;;;6185325;23;20013;-78
2022/11/16 10:49:31;;;;;;;68.05;31.20;;;11.20;99.90;;;;;;6185351;23;20382;-79
2022/11/16 10:51:57;;;;;;;42.47;18.98;;;11.30;99.90;;;;;;6185319;23;20468;-79
2022/11/16 10:54:23;;;;;;;42.78;19.50;;;11.30;99.90;;;;;;6159043;23;20092;-78
2022/11/16 10:56:56;;;;;;;46.22;21.40;;;11.20;99.90;;;;;;6159148;23;20044;-79
2022/11/16 10:59:41;;;;;;;52.42;26.52;;;11.30;99.90;;;;;;6185574;23;20017;-78
2022/11/16 11:05:36;;;;;;;44.45;23.23;;;11.40;99.90;;;;;;6185816;23;20017;-78
2022/11/16 11:08:11;;;;;;;46.00;20.00;;;11.30;99.90;;;;;;6185399;23;20025;-80
2022/11/16 11:10:41;;;;;;;39.33;19.08;;;11.30;99.90;;;;;;6159065;23;20017;-79
2022/11/16 11:13:09;;;;;;;36.83;17.55;;;11.40;99.90;;;;;;6185575;23;20036;-79
2022/11/16 11:15:40;;;;;;;36.30;17.48;;;11.40;99.90;;;;;;6185199;23;20051;-80
2022/11/16 11:18:14;;;;;;;37.03;16.35;;;11.40;99.90;;;;;;6185645;23;20044;-79
2022/11/16 11:20:43;;;;;;;36.00;15.80;;;11.60;99.90;;;;;;6186973;23;20361;-79
2022/11/16 11:23:17;;;;;;;32.15;15.27;;;11.50;99.90;;;;;;6186321;23;20009;-79
2022/11/16 11:25:50;;;;;;;27.42;13.02;;;11.50;99.90;;;;;;6160718;23;20203;-79
2022/11/16 11:28:28;;;;;;;29.42;13.50;;;11.50;99.90;;;;;;6186955;23;20013;-78
2022/11/16 11:30:54;;;;;;;28.23;13.40;;;11.40;99.90;;;;;;6160469;23;20040;-78
2022/11/16 11:33:22;;;;;;;24.67;12.25;;;11.40;99.90;;;;;;6160558;23;20332;-80
2022/11/16 11:35:59;;;;;;;26.48;12.95;;;11.40;99.90;;;;;;6160363;23;20389;-78
2022/11/16 11:38:25;;;;;;;23.42;12.07;;;11.40;99.90;;;;;;6160422;23;20025;-78
2022/11/16 11:40:59;;;;;;;23.85;11.85;;;11.50;99.90;;;;;;6187285;23;20016;-78
2022/11/16 11:43:25;;;;;;;26.70;13.40;;;11.40;99.90;;;;;;6186828;23;20091;-79
2022/11/16 11:45:57;;;;;;;25.92;12.52;;;11.40;99.90;;;;;;6186958;23;20017;-78
2022/11/16 11:48:52;;;;;;;24.92;13.25;;;11.50;99.90;;;;;;6187208;23;20062;-78
2022/11/16 11:51:28;;;;;;;24.83;12.23;;;11.50;99.90;;;;;;6185961;23;20017;-78
2022/11/16 11:53:55;;;;;;;26.55;10.13;;;11.50;99.90;;;;;;6160473;23;20052;-78
2022/11/16 11:56:21;;;;;;;21.92;10.18;;;11.40;99.90;;;;;;6160376;23;20100;-78
2022/11/16 11:58:48;;;;;;;20.35;9.82;;;11.50;99.90;;;;;;6187131;23;20017;-79
2022/11/16 12:01:35;;;;;;;29.17;11.00;;;11.50;99.90;;;;;;6160618;23;20028;-78
2022/11/16 12:04:06;;;;;;;20.90;10.10;;;11.50;99.90;;;;;;6160598;23;20091;-91
2022/11/16 12:06:53;;;;;;;26.15;10.05;;;11.50;99.90;;;;;;6160453;23;20017;-82
2022/11/16 12:09:47;;;;;;;20.35;9.93;;;11.70;99.90;;;;;;6160545;23;20520;-81
2022/11/16 12:12:35;;;;;;;21.85;10.07;;;11.70;99.90;;;;;;6186783;23;20480;-81
2022/11/16 12:15:35;;;;;;;18.88;10.15;;;11.80;99.90;;;;;;6160209;23;20017;-83
2022/11/16 12:18:32;;;;;;;21.63;10.77;;;11.80;99.90;;;;;;6187376;23;20056;-78
2022/11/16 12:21:06;;;;;;;27.90;10.68;;;11.90;99.90;;;;;;6160232;23;20021;-78
2022/11/16 12:23:57;;;;;;;19.58;9.07;;;12.00;99.90;;;;;;6187069;23;20017;-79
2022/11/16 12:26:50;;;;;;;21.20;10.13;;;12.10;99.90;;;;;;6187112;23;20020;-79
2022/11/16 12:29:27;;;;;;;;;;;12.10;99.90;;;;;;6187479;23;20036;-80
2022/11/16 12:32:20;;;;;;;18.98;9.43;;;12.20;99.90;;;;;;6160186;23;19927;-79
2022/11/16 12:35:04;;;;;;;18.05;10.23;;;12.20;99.90;;;;;;6186802;23;20076;-78
2022/11/16 12:37:51;;;;;;;17.52;10.35;;;12.10;99.90;;;;;;6160078;23;20017;-79
2022/11/16 12:40:22;;;;;;;24.63;10.13;;;12.20;99.90;;;;;;6160293;23;20549;-80
2022/11/16 12:43:15;;;;;;;21.13;10.23;;;12.20;99.90;;;;;;6160186;23;20013;-79
2022/11/16 12:45:47;;;;;;;24.83;11.25;;;12.20;99.90;;;;;;6160198;23;20027;-79
2022/11/16 12:48:28;;;;;;;19.20;9.63;;;12.20;99.90;;;;;;6160132;23;20056;-79
2022/11/16 12:51:02;;;;;;;23.77;10.18;;;12.30;99.90;;;;;;6160170;23;20032;-79
2022/11/16 12:53:37;;;;;;;21.20;8.65;;;12.20;99.90;;;;;;6160089;23;20032;-79
2022/11/16 12:56:30;;;;;;;20.35;9.45;;;12.40;99.90;;;;;;6160142;23;20017;-78
2022/11/16 12:59:17;;;;;;;21.13;9.10;;;12.40;99.90;;;;;;6159982;23;20394;-79
2022/11/16 13:02:07;;;;;;;17.85;9.80;;;12.50;99.90;;;;;;6160029;23;20029;-79
2022/11/16 13:04:40;;;;;;;16.05;8.95;;;12.40;99.90;;;;;;6186210;23;20059;-79
2022/11/16 13:07:21;;;;;;;;;;;12.40;99.90;;;;;;6160334;23;20021;-79
2022/11/16 13:10:13;;;;;;;21.80;9.25;;;12.30;99.90;;;;;;6159925;23;20324;-79
2022/11/16 13:12:40;;;;;;;19.02;8.35;;;12.30;99.90;;;;;;6159911;23;20053;-79
2022/11/16 13:15:18;;;;;;;15.77;8.75;;;12.40;99.90;;;;;;6159616;23;20433;-79
2022/11/16 13:17:56;;;;;;;20.27;8.73;;;12.40;99.90;;;;;;6159918;23;20031;-78
2022/11/16 13:20:48;;;;;;;21.13;9.13;;;12.40;99.90;;;;;;6186365;23;20040;-79
2022/11/16 13:23:29;;;;;;;13.27;7.47;;;12.40;99.90;;;;;;6159847;23;20393;-79